sensor_id;sensor_type;location;lat;lon;timestamp;pressure;altitude;pressure_sealevel;temperature;humidity
66762;BME280;53672;48.176;16.338;2023-01-25T00:00:54;100829.16;;;2.77;89.21
66762;BME280;53672;48.176;16.338;2023-01-25T00:05:59;100823.38;;;2.74;90.11
66762;BME280;53672;48.176;16.338;2023-01-25T00:10:59;100824.94;;;2.68;89.84
66762;BME280;53672;48.176;16.338;2023-01-25T00:16:00;100819.00;;;2.66;91.05
66762;BME280;53672;48.176;16.338;2023-01-25T00:21:12;100832.47;;;2.65;90.05
66762;BME280;53672;48.176;16.338;2023-01-25T00:26:13;100824.63;;;2.78;89.65
66762;BME280;53672;48.176;16.338;2023-01-25T00:31:16;100829.50;;;2.74;88.87
66762;BME280;53672;48.176;16.338;2023-01-25T00:36:32;100832.09;;;2.68;89.94
66762;BME280;53672;48.176;16.338;2023-01-25T00:41:32;100836.41;;;2.69;89.92
66762;BME280;53672;48.176;16.338;2023-01-25T00:46:33;100841.28;;;2.65;90.26
66762;BME280;53672;48.176;16.338;2023-01-25T00:51:35;100832.94;;;2.68;89.71
66762;BME280;53672;48.176;16.338;2023-01-25T00:56:35;100841.50;;;2.64;90.33
66762;BME280;53672;48.176;16.338;2023-01-25T01:01:36;100844.16;;;2.64;89.67
66762;BME280;53672;48.176;16.338;2023-01-25T01:06:38;100847.00;;;2.62;90.13
66762;BME280;53672;48.176;16.338;2023-01-25T01:11:38;100852.94;;;2.64;91.00
66762;BME280;53672;48.176;16.338;2023-01-25T01:16:40;100838.19;;;2.62;90.43
66762;BME280;53672;48.176;16.338;2023-01-25T01:21:42;100839.25;;;2.67;90.52
66762;BME280;53672;48.176;16.338;2023-01-25T01:26:42;100836.97;;;2.64;90.47
66762;BME280;53672;48.176;16.338;2023-01-25T01:31:43;100838.47;;;2.67;90.32
66762;BME280;53672;48.176;16.338;2023-01-25T01:36:45;100832.31;;;2.66;90.23
66762;BME280;53672;48.176;16.338;2023-01-25T01:41:45;100839.84;;;2.63;90.41
66762;BME280;53672;48.176;16.338;2023-01-25T01:46:50;100833.38;;;2.72;89.84
66762;BME280;53672;48.176;16.338;2023-01-25T01:51:57;100838.06;;;2.70;90.56
66762;BME280;53672;48.176;16.338;2023-01-25T01:57:02;100831.66;;;2.64;91.19
66762;BME280;53672;48.176;16.338;2023-01-25T02:02:06;100815.59;;;2.58;91.52
66762;BME280;53672;48.176;16.338;2023-01-25T02:07:12;100827.09;;;2.58;90.92
66762;BME280;53672;48.176;16.338;2023-01-25T02:12:14;100825.41;;;2.57;91.54
66762;BME280;53672;48.176;16.338;2023-01-25T02:17:18;100824.16;;;2.53;91.65
66762;BME280;53672;48.176;16.338;2023-01-25T02:22:29;100823.03;;;2.62;91.41
66762;BME280;53672;48.176;16.338;2023-01-25T02:27:36;100827.09;;;2.58;91.50
66762;BME280;53672;48.176;16.338;2023-01-25T02:32:37;100826.06;;;2.59;91.87
66762;BME280;53672;48.176;16.338;2023-01-25T02:37:38;100818.72;;;2.61;91.80
66762;BME280;53672;48.176;16.338;2023-01-25T02:42:42;100818.25;;;2.58;92.56
66762;BME280;53672;48.176;16.338;2023-01-25T02:47:43;100812.31;;;2.55;92.49
66762;BME280;53672;48.176;16.338;2023-01-25T02:52:43;100813.41;;;2.61;91.76
66762;BME280;53672;48.176;16.338;2023-01-25T02:57:45;100805.78;;;2.58;92.10
66762;BME280;53672;48.176;16.338;2023-01-25T03:02:46;100797.44;;;2.61;92.21
66762;BME280;53672;48.176;16.338;2023-01-25T03:07:46;100788.50;;;2.69;91.11
66762;BME280;53672;48.176;16.338;2023-01-25T03:12:48;100778.69;;;2.69;90.86
66762;BME280;53672;48.176;16.338;2023-01-25T03:17:49;100778.88;;;2.68;90.58
66762;BME280;53672;48.176;16.338;2023-01-25T03:22:49;100759.63;;;2.66;90.91
66762;BME280;53672;48.176;16.338;2023-01-25T03:27:51;100767.59;;;2.66;91.63
66762;BME280;53672;48.176;16.338;2023-01-25T03:32:52;100760.16;;;2.61;91.64
66762;BME280;53672;48.176;16.338;2023-01-25T03:37:52;100750.72;;;2.59;91.88
66762;BME280;53672;48.176;16.338;2023-01-25T03:42:54;100746.25;;;2.59;91.92
66762;BME280;53672;48.176;16.338;2023-01-25T03:47:55;100737.44;;;2.59;91.72
66762;BME280;53672;48.176;16.338;2023-01-25T03:52:55;100736.09;;;2.69;90.80
66762;BME280;53672;48.176;16.338;2023-01-25T03:57:57;100725.78;;;2.60;91.13
66762;BME280;53672;48.176;16.338;2023-01-25T04:02:57;100730.66;;;2.56;91.56
66762;BME280;53672;48.176;16.338;2023-01-25T04:07:58;100733.69;;;2.53;92.07
66762;BME280;53672;48.176;16.338;2023-01-25T04:13:00;100734.88;;;2.50;91.91
66762;BME280;53672;48.176;16.338;2023-01-25T04:18:01;100730.13;;;2.46;92.04
66762;BME280;53672;48.176;16.338;2023-01-25T04:23:01;100728.03;;;2.41;93.94
66762;BME280;53672;48.176;16.338;2023-01-25T04:28:03;100723.44;;;2.50;94.12
66762;BME280;53672;48.176;16.338;2023-01-25T04:33:04;100727.53;;;2.52;93.22
66762;BME280;53672;48.176;16.338;2023-01-25T04:38:05;100717.72;;;2.53;93.21
66762;BME280;53672;48.176;16.338;2023-01-25T04:43:07;100717.78;;;2.60;91.43
66762;BME280;53672;48.176;16.338;2023-01-25T04:48:09;100709.97;;;2.58;91.69
66762;BME280;53672;48.176;16.338;2023-01-25T04:53:11;100708.41;;;2.64;91.17
66762;BME280;53672;48.176;16.338;2023-01-25T04:58:13;100709.97;;;2.58;91.46
66762;BME280;53672;48.176;16.338;2023-01-25T05:03:14;100713.84;;;2.55;91.63
66762;BME280;53672;48.176;16.338;2023-01-25T05:08:14;100704.09;;;2.63;91.19
66762;BME280;53672;48.176;16.338;2023-01-25T05:13:16;100714.31;;;2.59;91.53
66762;BME280;53672;48.176;16.338;2023-01-25T05:18:17;100714.69;;;2.56;91.78
66762;BME280;53672;48.176;16.338;2023-01-25T05:23:17;100717.13;;;2.58;91.59
66762;BME280;53672;48.176;16.338;2023-01-25T05:28:19;100713.84;;;2.55;92.12
66762;BME280;53672;48.176;16.338;2023-01-25T05:33:20;100722.28;;;2.59;92.95
66762;BME280;53672;48.176;16.338;2023-01-25T05:38:20;100730.91;;;2.61;93.82
66762;BME280;53672;48.176;16.338;2023-01-25T05:43:22;100732.47;;;2.55;93.29
66762;BME280;53672;48.176;16.338;2023-01-25T05:48:23;100726.50;;;2.53;92.92
66762;BME280;53672;48.176;16.338;2023-01-25T05:53:24;100724.69;;;2.54;92.64
66762;BME280;53672;48.176;16.338;2023-01-25T05:58:26;100735.53;;;2.52;94.09
66762;BME280;53672;48.176;16.338;2023-01-25T06:03:26;100734.94;;;2.57;92.29
66762;BME280;53672;48.176;16.338;2023-01-25T06:08:27;100727.34;;;2.54;93.64
66762;BME280;53672;48.176;16.338;2023-01-25T06:13:29;100734.69;;;2.52;93.38
66762;BME280;53672;48.176;16.338;2023-01-25T06:18:30;100732.66;;;2.54;93.00
66762;BME280;53672;48.176;16.338;2023-01-25T06:23:31;100738.81;;;2.54;93.61
66762;BME280;53672;48.176;16.338;2023-01-25T06:28:34;100739.25;;;2.58;92.89
66762;BME280;53672;48.176;16.338;2023-01-25T06:33:36;100741.22;;;2.49;92.54
66762;BME280;53672;48.176;16.338;2023-01-25T06:38:36;100734.81;;;2.44;93.19
66762;BME280;53672;48.176;16.338;2023-01-25T06:43:38;100737.44;;;2.59;92.30
66762;BME280;53672;48.176;16.338;2023-01-25T06:48:39;100728.75;;;2.50;92.08
66762;BME280;53672;48.176;16.338;2023-01-25T06:53:41;100726.50;;;2.53;92.93
66762;BME280;53672;48.176;16.338;2023-01-25T06:58:43;100720.78;;;2.50;93.18
66762;BME280;53672;48.176;16.338;2023-01-25T07:03:47;100723.06;;;2.53;93.11
66762;BME280;53672;48.176;16.338;2023-01-25T07:08:47;100714.69;;;2.56;92.97
66762;BME280;53672;48.176;16.338;2023-01-25T07:13:50;100716.69;;;2.54;92.32
66762;BME280;53672;48.176;16.338;2023-01-25T07:18:50;100718.78;;;2.59;92.34
66762;BME280;53672;48.176;16.338;2023-01-25T07:23:51;100721.28;;;2.60;92.37
66762;BME280;53672;48.176;16.338;2023-01-25T07:28:53;100718.25;;;2.63;91.87
66762;BME280;53672;48.176;16.338;2023-01-25T07:33:56;100716.81;;;2.67;91.62
66762;BME280;53672;48.176;16.338;2023-01-25T07:38:57;100728.34;;;2.74;91.28
66762;BME280;53672;48.176;16.338;2023-01-25T07:43:59;100723.63;;;2.70;91.21
66762;BME280;53672;48.176;16.338;2023-01-25T07:48:59;100712.97;;;2.70;92.22
66762;BME280;53672;48.176;16.338;2023-01-25T07:54:02;100712.97;;;2.70;91.22
66762;BME280;53672;48.176;16.338;2023-01-25T07:59:04;100715.13;;;2.81;91.18
66762;BME280;53672;48.176;16.338;2023-01-25T08:04:04;100716.97;;;2.80;89.78
66762;BME280;53672;48.176;16.338;2023-01-25T08:09:07;100717.22;;;2.85;90.73
66762;BME280;53672;48.176;16.338;2023-01-25T08:14:09;100708.22;;;2.86;90.93
66762;BME280;53672;48.176;16.338;2023-01-25T08:19:10;100700.09;;;2.94;90.76
66762;BME280;53672;48.176;16.338;2023-01-25T08:24:11;100704.78;;;2.92;91.19
66762;BME280;53672;48.176;16.338;2023-01-25T08:29:12;100699.44;;;2.92;92.06
66762;BME280;53672;48.176;16.338;2023-01-25T08:34:13;100697.44;;;2.94;92.01
66762;BME280;53672;48.176;16.338;2023-01-25T08:39:13;100693.56;;;2.97;89.59
66762;BME280;53672;48.176;16.338;2023-01-25T08:44:15;100695.63;;;3.01;90.66
66762;BME280;53672;48.176;16.338;2023-01-25T08:49:16;100689.28;;;3.02;90.63
66762;BME280;53672;48.176;16.338;2023-01-25T08:54:17;100684.41;;;3.06;89.33
66762;BME280;53672;48.176;16.338;2023-01-25T08:59:19;100682.22;;;3.16;88.50
66762;BME280;53672;48.176;16.338;2023-01-25T09:04:20;100680.78;;;3.14;89.77
66762;BME280;53672;48.176;16.338;2023-01-25T09:09:20;100679.13;;;3.13;90.77
66762;BME280;53672;48.176;16.338;2023-01-25T09:14:22;100686.44;;;3.32;87.35
66762;BME280;53672;48.176;16.338;2023-01-25T09:19:23;100699.72;;;3.25;89.60
66762;BME280;53672;48.176;16.338;2023-01-25T09:24:23;100688.19;;;3.18;89.35
66762;BME280;53672;48.176;16.338;2023-01-25T09:29:25;100671.78;;;3.15;88.03
66762;BME280;53672;48.176;16.338;2023-01-25T09:34:26;100673.25;;;3.24;86.71
66762;BME280;53672;48.176;16.338;2023-01-25T09:39:26;100666.25;;;3.16;88.61
66762;BME280;53672;48.176;16.338;2023-01-25T09:44:40;100659.69;;;3.19;87.14
66762;BME280;53672;48.176;16.338;2023-01-25T09:49:55;100652.75;;;3.18;87.66
66762;BME280;53672;48.176;16.338;2023-01-25T09:54:59;100652.69;;;3.11;87.55
66762;BME280;53672;48.176;16.338;2023-01-25T10:00:10;100642.69;;;3.20;87.41
66762;BME280;53672;48.176;16.338;2023-01-25T10:05:18;100644.56;;;3.26;88.04
66762;BME280;53672;48.176;16.338;2023-01-25T10:10:25;100640.47;;;3.23;87.42
66762;BME280;53672;48.176;16.338;2023-01-25T10:15:32;100614.47;;;3.25;88.60
66762;BME280;53672;48.176;16.338;2023-01-25T10:20:40;100601.03;;;3.46;85.98
66762;BME280;53672;48.176;16.338;2023-01-25T10:25:45;100598.06;;;3.63;85.67
66762;BME280;53672;48.176;16.338;2023-01-25T10:30:52;100595.00;;;3.72;83.29
66762;BME280;53672;48.176;16.338;2023-01-25T10:35:54;100586.81;;;3.80;82.55
66762;BME280;53672;48.176;16.338;2023-01-25T10:40:58;100572.59;;;3.60;85.42
66762;BME280;53672;48.176;16.338;2023-01-25T10:46:01;100574.50;;;3.73;83.32
66762;BME280;53672;48.176;16.338;2023-01-25T10:51:02;100568.53;;;3.77;82.58
66762;BME280;53672;48.176;16.338;2023-01-25T10:56:29;100560.34;;;3.72;82.85
66762;BME280;53672;48.176;16.338;2023-01-25T11:01:32;100563.84;;;3.73;82.71
66762;BME280;53672;48.176;16.338;2023-01-25T11:06:35;100547.84;;;3.73;84.41
66762;BME280;53672;48.176;16.338;2023-01-25T11:11:37;100536.13;;;3.67;84.57
66762;BME280;53672;48.176;16.338;2023-01-25T11:16:39;100533.44;;;3.67;83.50
66762;BME280;53672;48.176;16.338;2023-01-25T11:21:50;100530.44;;;3.83;82.63
66762;BME280;53672;48.176;16.338;2023-01-25T11:27:10;100522.19;;;3.65;82.80
66762;BME280;53672;48.176;16.338;2023-01-25T11:32:17;100518.53;;;3.79;81.35
66762;BME280;53672;48.176;16.338;2023-01-25T11:37:28;100513.53;;;3.63;84.50
66762;BME280;53672;48.176;16.338;2023-01-25T11:42:40;100492.03;;;3.65;83.86
66762;BME280;53672;48.176;16.338;2023-01-25T11:47:56;100486.50;;;3.66;83.04
66762;BME280;53672;48.176;16.338;2023-01-25T11:53:26;100470.94;;;3.83;83.30
66762;BME280;53672;48.176;16.338;2023-01-25T11:58:44;100461.53;;;3.87;81.38
66762;BME280;53672;48.176;16.338;2023-01-25T12:09:44;100449.81;;;4.01;81.40
66762;BME280;53672;48.176;16.338;2023-01-25T12:15:16;100439.13;;;3.75;82.10
66762;BME280;53672;48.176;16.338;2023-01-25T12:20:43;100430.91;;;3.63;84.21
66762;BME280;53672;48.176;16.338;2023-01-25T12:26:04;100423.53;;;3.58;86.26
66762;BME280;53672;48.176;16.338;2023-01-25T12:31:11;100410.63;;;3.62;83.74
66762;BME280;53672;48.176;16.338;2023-01-25T12:36:17;100400.38;;;3.59;83.96
66762;BME280;53672;48.176;16.338;2023-01-25T12:41:31;100400.16;;;3.47;86.81
66762;BME280;53672;48.176;16.338;2023-01-25T12:46:39;100394.22;;;3.45;84.45
66762;BME280;53672;48.176;16.338;2023-01-25T12:51:42;100384.34;;;3.46;85.72
66762;BME280;53672;48.176;16.338;2023-01-25T12:56:48;100386.63;;;3.49;84.37
66762;BME280;53672;48.176;16.338;2023-01-25T13:01:54;100374.50;;;3.46;85.05
66762;BME280;53672;48.176;16.338;2023-01-25T13:07:02;100355.66;;;3.61;83.63
66762;BME280;53672;48.176;16.338;2023-01-25T13:12:09;100354.25;;;3.65;82.93
66762;BME280;53672;48.176;16.338;2023-01-25T13:17:19;100354.84;;;3.41;86.95
66762;BME280;53672;48.176;16.338;2023-01-25T13:22:54;100349.31;;;3.42;84.08
66762;BME280;53672;48.176;16.338;2023-01-25T13:33:37;100341.09;;;3.31;84.41
66762;BME280;53672;48.176;16.338;2023-01-25T13:38:38;100334.53;;;3.27;87.46
66762;BME280;53672;48.176;16.338;2023-01-25T13:43:40;100331.25;;;3.25;86.96
66762;BME280;53672;48.176;16.338;2023-01-25T13:48:54;100321.22;;;3.27;84.60
66762;BME280;53672;48.176;16.338;2023-01-25T13:53:58;100325.53;;;3.21;85.15
66762;BME280;53672;48.176;16.338;2023-01-25T13:58:59;100311.16;;;3.09;85.61
66762;BME280;53672;48.176;16.338;2023-01-25T14:04:03;100316.28;;;3.17;84.82
66762;BME280;53672;48.176;16.338;2023-01-25T14:09:09;100312.97;;;3.08;87.31
66762;BME280;53672;48.176;16.338;2023-01-25T14:14:20;100309.50;;;3.01;86.80
66762;BME280;53672;48.176;16.338;2023-01-25T14:19:26;100308.88;;;2.93;86.44
66762;BME280;53672;48.176;16.338;2023-01-25T14:24:27;100318.44;;;2.74;88.73
66762;BME280;53672;48.176;16.338;2023-01-25T14:29:28;100312.44;;;2.52;88.41
66762;BME280;53672;48.176;16.338;2023-01-25T14:34:30;100316.97;;;2.65;89.83
66762;BME280;53672;48.176;16.338;2023-01-25T14:39:31;100315.97;;;2.66;88.69
66762;BME280;53672;48.176;16.338;2023-01-25T14:44:32;100309.41;;;2.62;88.80
66762;BME280;53672;48.176;16.338;2023-01-25T14:49:34;100309.41;;;2.62;89.34
66762;BME280;53672;48.176;16.338;2023-01-25T14:54:36;100302.84;;;2.58;89.88
66762;BME280;53672;48.176;16.338;2023-01-25T14:59:43;100299.34;;;2.58;89.66
66762;BME280;53672;48.176;16.338;2023-01-25T15:04:56;100302.78;;;2.45;89.45
66762;BME280;53672;48.176;16.338;2023-01-25T15:10:02;100295.63;;;2.45;90.58
66762;BME280;53672;48.176;16.338;2023-01-25T15:15:17;100302.56;;;2.40;90.72
66762;BME280;53672;48.176;16.338;2023-01-25T15:20:31;100304.72;;;2.23;91.26
66762;BME280;53672;48.176;16.338;2023-01-25T15:25:31;100284.94;;;2.26;91.32
66762;BME280;53672;48.176;16.338;2023-01-25T15:30:32;100289.84;;;2.29;90.43
66762;BME280;53672;48.176;16.338;2023-01-25T15:35:34;100291.03;;;2.26;90.84
66762;BME280;53672;48.176;16.338;2023-01-25T15:40:35;100281.19;;;2.20;91.39
66762;BME280;53672;48.176;16.338;2023-01-25T15:45:35;100279.97;;;2.23;90.99
66762;BME280;53672;48.176;16.338;2023-01-25T15:50:37;100276.84;;;2.13;90.95
66762;BME280;53672;48.176;16.338;2023-01-25T15:55:38;100282.81;;;2.15;91.47
66762;BME280;53672;48.176;16.338;2023-01-25T16:00:38;100272.75;;;2.10;91.50
66762;BME280;53672;48.176;16.338;2023-01-25T16:05:40;100278.47;;;2.07;92.27
66762;BME280;53672;48.176;16.338;2023-01-25T16:10:41;100274.38;;;2.04;92.65
66762;BME280;53672;48.176;16.338;2023-01-25T16:15:47;100266.38;;;1.98;92.44
66762;BME280;53672;48.176;16.338;2023-01-25T16:20:50;100265.94;;;1.94;92.38
66762;BME280;53672;48.176;16.338;2023-01-25T16:25:51;100269.63;;;1.93;93.19
66762;BME280;53672;48.176;16.338;2023-01-25T16:30:51;100259.84;;;2.00;92.69
66762;BME280;53672;48.176;16.338;2023-01-25T16:36:11;100262.25;;;1.95;94.39
66762;BME280;53672;48.176;16.338;2023-01-25T16:41:13;100250.19;;;1.93;92.62
66762;BME280;53672;48.176;16.338;2023-01-25T16:46:21;100248.34;;;1.93;92.34
66762;BME280;53672;48.176;16.338;2023-01-25T16:51:26;100237.72;;;1.93;92.06
66762;BME280;53672;48.176;16.338;2023-01-25T16:56:28;100242.22;;;1.93;92.26
66762;BME280;53672;48.176;16.338;2023-01-25T17:01:30;100237.88;;;1.85;92.64
66762;BME280;53672;48.176;16.338;2023-01-25T17:06:35;100227.22;;;1.79;92.91
66762;BME280;53672;48.176;16.338;2023-01-25T17:11:37;100232.34;;;1.80;93.91
66762;BME280;53672;48.176;16.338;2023-01-25T17:16:38;100223.56;;;1.86;93.33
66762;BME280;53672;48.176;16.338;2023-01-25T17:21:40;100214.84;;;1.99;91.87
66762;BME280;53672;48.176;16.338;2023-01-25T17:26:41;100218.06;;;1.88;92.96
66762;BME280;53672;48.176;16.338;2023-01-25T17:31:42;100200.66;;;1.85;92.79
66762;BME280;53672;48.176;16.338;2023-01-25T17:36:45;100201.06;;;1.82;93.92
66762;BME280;53672;48.176;16.338;2023-01-25T17:41:48;100188.81;;;1.81;94.35
66762;BME280;53672;48.176;16.338;2023-01-25T17:46:49;100185.31;;;1.81;94.69
66762;BME280;53672;48.176;16.338;2023-01-25T17:51:52;100184.28;;;1.82;93.52
66762;BME280;53672;48.176;16.338;2023-01-25T17:56:53;100184.91;;;1.77;94.18
66762;BME280;53672;48.176;16.338;2023-01-25T18:01:54;100179.59;;;1.77;94.08
66762;BME280;53672;48.176;16.338;2023-01-25T18:06:57;100166.50;;;1.82;94.36
66762;BME280;53672;48.176;16.338;2023-01-25T18:11:58;100170.00;;;1.83;92.81
66762;BME280;53672;48.176;16.338;2023-01-25T18:16:59;100172.19;;;1.73;94.55
66762;BME280;53672;48.176;16.338;2023-01-25T18:22:01;100156.41;;;1.65;95.57
66762;BME280;53672;48.176;16.338;2023-01-25T18:27:04;100156.59;;;1.57;94.73
66762;BME280;53672;48.176;16.338;2023-01-25T18:32:06;100138.97;;;1.49;96.02
66762;BME280;53672;48.176;16.338;2023-01-25T18:37:08;100141.78;;;1.41;94.72
66762;BME280;53672;48.176;16.338;2023-01-25T18:42:09;100145.19;;;1.63;94.93
66762;BME280;53672;48.176;16.338;2023-01-25T18:47:10;100140.31;;;1.73;93.79
66762;BME280;53672;48.176;16.338;2023-01-25T18:52:13;100133.97;;;1.67;93.60
66762;BME280;53672;48.176;16.338;2023-01-25T18:57:14;100130.06;;;1.63;94.37
66762;BME280;53672;48.176;16.338;2023-01-25T19:02:17;100122.50;;;1.67;93.39
66762;BME280;53672;48.176;16.338;2023-01-25T19:07:21;100117.97;;;1.54;93.83
66762;BME280;53672;48.176;16.338;2023-01-25T19:12:22;100111.16;;;1.45;95.76
66762;BME280;53672;48.176;16.338;2023-01-25T19:17:23;100101.56;;;1.44;96.51
66762;BME280;53672;48.176;16.338;2023-01-25T19:22:26;100091.44;;;1.61;93.77
66762;BME280;53672;48.176;16.338;2023-01-25T19:27:27;100082.97;;;1.44;95.39
66762;BME280;53672;48.176;16.338;2023-01-25T19:32:29;100075.88;;;1.58;95.59
66762;BME280;53672;48.176;16.338;2023-01-25T19:37:36;100068.94;;;1.57;94.47
66762;BME280;53672;48.176;16.338;2023-01-25T19:42:37;100066.69;;;1.53;94.92
66762;BME280;53672;48.176;16.338;2023-01-25T19:47:39;100066.28;;;1.57;94.95
66762;BME280;53672;48.176;16.338;2023-01-25T19:52:42;100053.97;;;1.42;95.59
66762;BME280;53672;48.176;16.338;2023-01-25T19:57:45;100053.53;;;1.39;96.02
66762;BME280;53672;48.176;16.338;2023-01-25T20:02:46;100043.31;;;1.36;96.58
66762;BME280;53672;48.176;16.338;2023-01-25T20:07:49;100032.06;;;1.34;96.35
66762;BME280;53672;48.176;16.338;2023-01-25T20:12:50;100028.78;;;1.32;96.60
66762;BME280;53672;48.176;16.338;2023-01-25T20:17:51;100021.19;;;1.22;96.87
66762;BME280;53672;48.176;16.338;2023-01-25T20:22:54;100007.72;;;1.24;96.85
66762;BME280;53672;48.176;16.338;2023-01-25T20:27:55;100006.13;;;1.29;97.06
66762;BME280;53672;48.176;16.338;2023-01-25T20:32:57;99996.66;;;1.20;97.92
66762;BME280;53672;48.176;16.338;2023-01-25T20:37:59;99995.47;;;1.16;98.10
66762;BME280;53672;48.176;16.338;2023-01-25T20:43:01;99991.94;;;1.09;98.63
66762;BME280;53672;48.176;16.338;2023-01-25T20:48:02;99977.25;;;1.13;98.47
66762;BME280;53672;48.176;16.338;2023-01-25T20:53:05;99985.41;;;1.12;97.69
66762;BME280;53672;48.176;16.338;2023-01-25T20:58:06;99978.91;;;1.21;97.14
66762;BME280;53672;48.176;16.338;2023-01-25T21:03:07;99979.50;;;1.10;97.22
66762;BME280;53672;48.176;16.338;2023-01-25T21:08:10;99963.56;;;1.10;98.12
66762;BME280;53672;48.176;16.338;2023-01-25T21:13:12;99969.47;;;1.05;100.00
66762;BME280;53672;48.176;16.338;2023-01-25T21:18:13;99953.34;;;1.07;100.00
66762;BME280;53672;48.176;16.338;2023-01-25T21:23:15;99946.53;;;0.91;99.71
66762;BME280;53672;48.176;16.338;2023-01-25T21:28:17;99943.88;;;0.91;99.88
66762;BME280;53672;48.176;16.338;2023-01-25T21:33:18;99945.53;;;0.92;99.63
66762;BME280;53672;48.176;16.338;2023-01-25T21:38:20;99940.44;;;0.97;99.02
66762;BME280;53672;48.176;16.338;2023-01-25T21:43:21;99931.25;;;0.99;99.15
66762;BME280;53672;48.176;16.338;2023-01-25T21:48:21;99938.03;;;1.09;99.36
66762;BME280;53672;48.176;16.338;2023-01-25T21:53:25;99928.41;;;0.94;99.75
66762;BME280;53672;48.176;16.338;2023-01-25T21:58:25;99924.06;;;0.87;99.99
66762;BME280;53672;48.176;16.338;2023-01-25T22:03:26;99918.66;;;1.08;99.66
66762;BME280;53672;48.176;16.338;2023-01-25T22:08:28;99919.16;;;0.84;99.65
66762;BME280;53672;48.176;16.338;2023-01-25T22:13:29;99914.47;;;0.86;100.00
66762;BME280;53672;48.176;16.338;2023-01-25T22:18:31;99916.66;;;0.76;100.00
66762;BME280;53672;48.176;16.338;2023-01-25T22:23:33;99908.53;;;0.77;100.00
66762;BME280;53672;48.176;16.338;2023-01-25T22:28:38;99901.38;;;0.78;100.00
66762;BME280;53672;48.176;16.338;2023-01-25T22:33:43;99897.13;;;0.83;99.64
66762;BME280;53672;48.176;16.338;2023-01-25T22:38:45;99890.25;;;0.95;100.00
66762;BME280;53672;48.176;16.338;2023-01-25T22:43:46;99880.19;;;0.84;100.00
66762;BME280;53672;48.176;16.338;2023-01-25T22:48:46;99868.75;;;0.84;100.00
66762;BME280;53672;48.176;16.338;2023-01-25T22:53:49;99866.28;;;0.76;100.00
66762;BME280;53672;48.176;16.338;2023-01-25T22:58:49;99857.91;;;0.79;100.00
66762;BME280;53672;48.176;16.338;2023-01-25T23:03:51;99854.63;;;0.70;100.00
66762;BME280;53672;48.176;16.338;2023-01-25T23:08:54;99850.72;;;0.60;100.00
66762;BME280;53672;48.176;16.338;2023-01-25T23:13:55;99848.44;;;0.50;100.00
66762;BME280;53672;48.176;16.338;2023-01-25T23:18:56;99850.25;;;0.49;100.00
66762;BME280;53672;48.176;16.338;2023-01-25T23:23:59;99850.63;;;0.40;100.00
66762;BME280;53672;48.176;16.338;2023-01-25T23:29:00;99855.72;;;0.41;100.00
66762;BME280;53672;48.176;16.338;2023-01-25T23:34:02;99847.56;;;0.36;100.00
66762;BME280;53672;48.176;16.338;2023-01-25T23:39:04;99849.34;;;0.29;100.00
66762;BME280;53672;48.176;16.338;2023-01-25T23:44:05;99839.19;;;0.33;100.00
66762;BME280;53672;48.176;16.338;2023-01-25T23:49:05;99842.22;;;0.30;100.00
66762;BME280;53672;48.176;16.338;2023-01-25T23:54:07;99834.22;;;0.17;100.00
66762;BME280;53672;48.176;16.338;2023-01-25T23:59:08;99818.53;;;0.22;100.00
